Archival Weather

Chicago O'Hare International

Chicago, Illinois (KORD)

Report from: Tuesday, December 13, 2022 3:17 PM CST
Current time: Monday, June 24, 2024 4:07 AM CDT

Current weather – Weather history – Daily summaries
Weather forecast

Temperature2.8°C (37.0°F)
Wind chill-2.6°C (27.3°F)
Dew point-1.7°C (28.9°F)
Winds 15 kts (7.7 m/s, 17.3 mph) East-Southeast (110°)
Wind gusts 21 kts (10.8 m/s, 24.2 mph)
Visibility10 mi. (16.1 km)
Clouds Scattered clouds 1,900 ft. (579 m)
Ceiling: Broken clouds 14,000 ft. (4,267 m)
Overcast 30,000 ft. (9,144 m)
Altimeter30.11 in.Hg (1020 mB)
Relative humidity72 %
Density altitude-1,616 ft. (-493 m)
Remarks Automated weather observing station with precipitation discriminator
Flight conditions Visual Meteorological Conditions
Raw dataKORD 132117Z 11015G21KT 10SM SCT019 BKN140 OVC300 03/M02 A3011 RMK AO2 T00281017
An error has occurred. This application may no longer respond until reloaded. Reload 🗙